KBRY/BRY METAR and TAF weather

Enter ICAO airport designator
Station Type Date Time Source
KBRY METAR 2020/03/29 12:15 UTC NOAA

KBRY 291215Z AUTO 23008G14KT 197V257 10SM CLR 16/09 A2981 RMK AO1


Station Type Date Time Source
KBRY Decoded METAR 2020/03/29 12:15 UTC NOAA

Station name not available
Mar 29, 2020 - 08:15 AM EDT / 2020.03.29 1215 UTC
Wind: from the SW (230 degrees) at 9 MPH (8 KT) gusting to 16 MPH (14 KT) (direction variable):0
Visibility: 10 mile(s):0
Sky conditions: clear
Temperature: 60 F (16 C)
Dew Point: 48 F (9 C)
Relative Humidity: 63%
Pressure (altimeter): 29.81 in. Hg (1009 hPa)
ob: KBRY 291215Z AUTO 23008G14KT 197V257 10SM CLR 16/09 A2981 RMK AO1
cycle: 12

Station Type Date Time Source
KBRY TAF UTC NOAA

Error!

Example: see airport list